sensor_id;sensor_type;location;lat;lon;timestamp;temperature;humidity
63289;DHT22;49412;48.162;-1.978;2023-04-06T00:01:25;10.70;48.00
63289;DHT22;49412;48.162;-1.978;2023-04-06T00:03:51;10.80;51.50
63289;DHT22;49412;48.162;-1.978;2023-04-06T00:06:16;10.70;46.30
63289;DHT22;49412;48.162;-1.978;2023-04-06T00:08:42;10.50;63.70
63289;DHT22;49412;48.162;-1.978;2023-04-06T00:11:08;10.50;65.20
63289;DHT22;49412;48.162;-1.978;2023-04-06T00:13:34;10.50;58.70
63289;DHT22;49412;48.162;-1.978;2023-04-06T00:16:00;10.50;70.30
63289;DHT22;49412;48.162;-1.978;2023-04-06T00:18:25;10.80;67.10
63289;DHT22;49412;48.162;-1.978;2023-04-06T00:20:51;10.90;55.50
63289;DHT22;49412;48.162;-1.978;2023-04-06T00:23:17;11.20;55.80
63289;DHT22;49412;48.162;-1.978;2023-04-06T00:25:43;11.40;51.70
63289;DHT22;49412;48.162;-1.978;2023-04-06T00:28:08;11.60;40.50
63289;DHT22;49412;48.162;-1.978;2023-04-06T00:30:34;11.30;34.50
63289;DHT22;49412;48.162;-1.978;2023-04-06T00:33:00;11.30;43.60
63289;DHT22;49412;48.162;-1.978;2023-04-06T00:35:26;11.20;45.90
63289;DHT22;49412;48.162;-1.978;2023-04-06T00:37:51;11.10;43.60
63289;DHT22;49412;48.162;-1.978;2023-04-06T00:40:17;11.00;47.70
63289;DHT22;49412;48.162;-1.978;2023-04-06T00:42:43;11.00;46.00
63289;DHT22;49412;48.162;-1.978;2023-04-06T00:45:09;10.80;45.70
63289;DHT22;49412;48.162;-1.978;2023-04-06T00:47:35;10.70;55.30
63289;DHT22;49412;48.162;-1.978;2023-04-06T00:50:00;10.60;56.20
63289;DHT22;49412;48.162;-1.978;2023-04-06T00:52:26;10.50;61.70
63289;DHT22;49412;48.162;-1.978;2023-04-06T00:54:51;10.80;71.20
63289;DHT22;49412;48.162;-1.978;2023-04-06T00:57:17;11.00;64.00
63289;DHT22;49412;48.162;-1.978;2023-04-06T00:59:43;11.20;55.40
63289;DHT22;49412;48.162;-1.978;2023-04-06T01:02:09;11.10;57.40
63289;DHT22;49412;48.162;-1.978;2023-04-06T01:04:34;11.10;52.80
63289;DHT22;49412;48.162;-1.978;2023-04-06T01:07:00;11.20;50.20
63289;DHT22;49412;48.162;-1.978;2023-04-06T01:09:29;11.10;49.80
63289;DHT22;49412;48.162;-1.978;2023-04-06T01:11:58;11.20;44.10
63289;DHT22;49412;48.162;-1.978;2023-04-06T01:14:24;11.00;51.30
63289;DHT22;49412;48.162;-1.978;2023-04-06T01:16:50;11.00;52.30
63289;DHT22;49412;48.162;-1.978;2023-04-06T01:19:15;11.00;53.40
63289;DHT22;49412;48.162;-1.978;2023-04-06T01:21:41;10.90;50.20
63289;DHT22;49412;48.162;-1.978;2023-04-06T01:24:07;10.70;51.00
63289;DHT22;49412;48.162;-1.978;2023-04-06T01:26:33;10.60;62.10
63289;DHT22;49412;48.162;-1.978;2023-04-06T01:28:59;10.80;62.80
63289;DHT22;49412;48.162;-1.978;2023-04-06T01:31:25;10.90;63.00
63289;DHT22;49412;48.162;-1.978;2023-04-06T01:33:51;11.20;63.60
63289;DHT22;49412;48.162;-1.978;2023-04-06T01:36:17;11.40;58.70
63289;DHT22;49412;48.162;-1.978;2023-04-06T01:38:43;11.50;50.80
63289;DHT22;49412;48.162;-1.978;2023-04-06T01:41:08;11.50;43.90
63289;DHT22;49412;48.162;-1.978;2023-04-06T01:43:34;11.40;38.10
63289;DHT22;49412;48.162;-1.978;2023-04-06T01:46:00;11.00;38.40
63289;DHT22;49412;48.162;-1.978;2023-04-06T01:48:26;10.60;50.10
63289;DHT22;49412;48.162;-1.978;2023-04-06T01:50:52;10.60;56.00
63289;DHT22;49412;48.162;-1.978;2023-04-06T01:53:18;10.60;64.10
63289;DHT22;49412;48.162;-1.978;2023-04-06T01:55:43;10.60;54.40
63289;DHT22;49412;48.162;-1.978;2023-04-06T01:58:09;10.70;58.70
63289;DHT22;49412;48.162;-1.978;2023-04-06T02:00:34;10.80;56.50
63289;DHT22;49412;48.162;-1.978;2023-04-06T02:03:00;10.80;47.60
63289;DHT22;49412;48.162;-1.978;2023-04-06T02:05:26;10.60;52.30
63289;DHT22;49412;48.162;-1.978;2023-04-06T02:07:52;10.40;54.60
63289;DHT22;49412;48.162;-1.978;2023-04-06T02:10:17;10.30;61.80
63289;DHT22;49412;48.162;-1.978;2023-04-06T02:12:43;10.30;66.10
63289;DHT22;49412;48.162;-1.978;2023-04-06T02:15:09;10.50;64.20
63289;DHT22;49412;48.162;-1.978;2023-04-06T02:17:35;10.40;59.10
63289;DHT22;49412;48.162;-1.978;2023-04-06T02:20:00;10.40;61.60
63289;DHT22;49412;48.162;-1.978;2023-04-06T02:22:26;10.40;58.40
63289;DHT22;49412;48.162;-1.978;2023-04-06T02:24:51;10.40;53.70
63289;DHT22;49412;48.162;-1.978;2023-04-06T02:27:17;10.30;58.00
63289;DHT22;49412;48.162;-1.978;2023-04-06T02:29:43;10.20;63.00
63289;DHT22;49412;48.162;-1.978;2023-04-06T02:32:08;10.30;64.90
63289;DHT22;49412;48.162;-1.978;2023-04-06T02:34:34;10.50;64.60
63289;DHT22;49412;48.162;-1.978;2023-04-06T02:36:59;10.40;57.40
63289;DHT22;49412;48.162;-1.978;2023-04-06T02:39:25;10.40;61.00
63289;DHT22;49412;48.162;-1.978;2023-04-06T02:41:50;10.40;58.40
63289;DHT22;49412;48.162;-1.978;2023-04-06T02:44:16;10.50;51.40
63289;DHT22;49412;48.162;-1.978;2023-04-06T02:46:42;10.60;50.00
63289;DHT22;49412;48.162;-1.978;2023-04-06T02:49:07;10.40;49.90
63289;DHT22;49412;48.162;-1.978;2023-04-06T02:51:33;10.40;53.70
63289;DHT22;49412;48.162;-1.978;2023-04-06T02:53:58;10.40;51.30
63289;DHT22;49412;48.162;-1.978;2023-04-06T02:56:24;10.40;47.20
63289;DHT22;49412;48.162;-1.978;2023-04-06T02:58:50;10.40;50.50
63289;DHT22;49412;48.162;-1.978;2023-04-06T03:01:15;10.40;49.30
63289;DHT22;49412;48.162;-1.978;2023-04-06T03:03:41;10.30;48.40
63289;DHT22;49412;48.162;-1.978;2023-04-06T03:06:07;10.20;50.60
63289;DHT22;49412;48.162;-1.978;2023-04-06T03:08:32;10.20;54.60
63289;DHT22;49412;48.162;-1.978;2023-04-06T03:10:58;10.20;51.80
63289;DHT22;49412;48.162;-1.978;2023-04-06T03:13:23;10.10;53.90
63289;DHT22;49412;48.162;-1.978;2023-04-06T03:15:49;10.20;59.60
63289;DHT22;49412;48.162;-1.978;2023-04-06T03:18:15;10.20;52.70
63289;DHT22;49412;48.162;-1.978;2023-04-06T03:20:41;10.20;51.20
63289;DHT22;49412;48.162;-1.978;2023-04-06T03:23:06;10.20;52.40
63289;DHT22;49412;48.162;-1.978;2023-04-06T03:25:32;10.20;50.70
63289;DHT22;49412;48.162;-1.978;2023-04-06T03:27:57;10.20;51.60
63289;DHT22;49412;48.162;-1.978;2023-04-06T03:30:23;10.40;45.10
63289;DHT22;49412;48.162;-1.978;2023-04-06T03:32:49;10.30;45.20
63289;DHT22;49412;48.162;-1.978;2023-04-06T03:35:14;10.30;43.70
63289;DHT22;49412;48.162;-1.978;2023-04-06T03:37:40;10.30;45.30
63289;DHT22;49412;48.162;-1.978;2023-04-06T03:40:06;10.30;48.40
63289;DHT22;49412;48.162;-1.978;2023-04-06T03:42:31;10.40;49.40
63289;DHT22;49412;48.162;-1.978;2023-04-06T03:44:58;10.40;44.50
63289;DHT22;49412;48.162;-1.978;2023-04-06T03:47:23;10.40;42.60
63289;DHT22;49412;48.162;-1.978;2023-04-06T03:49:49;10.40;44.00
63289;DHT22;49412;48.162;-1.978;2023-04-06T03:52:15;10.50;43.70
63289;DHT22;49412;48.162;-1.978;2023-04-06T03:54:40;10.40;43.20
63289;DHT22;49412;48.162;-1.978;2023-04-06T03:57:06;10.30;47.40
63289;DHT22;49412;48.162;-1.978;2023-04-06T03:59:32;10.40;49.90
63289;DHT22;49412;48.162;-1.978;2023-04-06T04:01:57;10.40;46.90
63289;DHT22;49412;48.162;-1.978;2023-04-06T04:04:23;10.50;45.30
63289;DHT22;49412;48.162;-1.978;2023-04-06T04:06:48;10.40;41.60
63289;DHT22;49412;48.162;-1.978;2023-04-06T04:09:14;10.30;46.70
63289;DHT22;49412;48.162;-1.978;2023-04-06T04:11:40;10.30;49.70
63289;DHT22;49412;48.162;-1.978;2023-04-06T04:14:06;10.30;47.30
63289;DHT22;49412;48.162;-1.978;2023-04-06T04:16:31;10.30;54.50
63289;DHT22;49412;48.162;-1.978;2023-04-06T04:18:57;10.40;52.70
63289;DHT22;49412;48.162;-1.978;2023-04-06T04:21:24;10.30;56.20
63289;DHT22;49412;48.162;-1.978;2023-04-06T04:23:51;10.30;57.70
63289;DHT22;49412;48.162;-1.978;2023-04-06T04:26:17;10.20;61.30
63289;DHT22;49412;48.162;-1.978;2023-04-06T04:28:43;10.10;68.20
63289;DHT22;49412;48.162;-1.978;2023-04-06T04:31:09;10.10;65.70
63289;DHT22;49412;48.162;-1.978;2023-04-06T04:33:34;10.20;67.50
63289;DHT22;49412;48.162;-1.978;2023-04-06T04:36:00;10.30;60.90
63289;DHT22;49412;48.162;-1.978;2023-04-06T04:38:26;10.20;63.00
63289;DHT22;49412;48.162;-1.978;2023-04-06T04:40:51;10.20;64.20
63289;DHT22;49412;48.162;-1.978;2023-04-06T04:43:17;10.10;68.90
63289;DHT22;49412;48.162;-1.978;2023-04-06T04:45:42;10.10;70.00
63289;DHT22;49412;48.162;-1.978;2023-04-06T04:48:08;10.10;69.70
63289;DHT22;49412;48.162;-1.978;2023-04-06T04:50:34;10.10;74.30
63289;DHT22;49412;48.162;-1.978;2023-04-06T04:52:59;10.10;73.80
63289;DHT22;49412;48.162;-1.978;2023-04-06T04:55:25;10.20;75.30
63289;DHT22;49412;48.162;-1.978;2023-04-06T04:57:51;10.20;70.40
63289;DHT22;49412;48.162;-1.978;2023-04-06T05:00:17;10.30;73.70
63289;DHT22;49412;48.162;-1.978;2023-04-06T05:02:42;10.30;74.70
63289;DHT22;49412;48.162;-1.978;2023-04-06T05:05:08;10.30;71.40
63289;DHT22;49412;48.162;-1.978;2023-04-06T05:07:34;10.20;75.20
63289;DHT22;49412;48.162;-1.978;2023-04-06T05:10:00;10.20;76.70
63289;DHT22;49412;48.162;-1.978;2023-04-06T05:12:25;10.20;78.20
63289;DHT22;49412;48.162;-1.978;2023-04-06T05:14:53;10.20;82.80
63289;DHT22;49412;48.162;-1.978;2023-04-06T05:17:18;10.40;83.70
63289;DHT22;49412;48.162;-1.978;2023-04-06T05:19:44;10.50;77.80
63289;DHT22;49412;48.162;-1.978;2023-04-06T05:22:10;10.40;74.10
63289;DHT22;49412;48.162;-1.978;2023-04-06T05:24:36;10.50;79.60
63289;DHT22;49412;48.162;-1.978;2023-04-06T05:27:02;10.60;77.20
63289;DHT22;49412;48.162;-1.978;2023-04-06T05:29:27;10.60;72.10
63289;DHT22;49412;48.162;-1.978;2023-04-06T05:31:54;10.60;74.40
63289;DHT22;49412;48.162;-1.978;2023-04-06T05:34:19;10.50;73.70
63289;DHT22;49412;48.162;-1.978;2023-04-06T05:36:45;10.50;80.00
63289;DHT22;49412;48.162;-1.978;2023-04-06T05:39:11;10.50;76.30
63289;DHT22;49412;48.162;-1.978;2023-04-06T05:41:37;10.50;73.30
63289;DHT22;49412;48.162;-1.978;2023-04-06T05:44:03;10.50;79.00
63289;DHT22;49412;48.162;-1.978;2023-04-06T05:46:28;10.50;76.00
63289;DHT22;49412;48.162;-1.978;2023-04-06T05:48:54;10.40;79.90
63289;DHT22;49412;48.162;-1.978;2023-04-06T05:51:20;10.40;84.40
63289;DHT22;49412;48.162;-1.978;2023-04-06T05:53:46;10.40;83.90
63289;DHT22;49412;48.162;-1.978;2023-04-06T05:56:11;10.50;82.30
63289;DHT22;49412;48.162;-1.978;2023-04-06T05:58:37;10.50;81.70
63289;DHT22;49412;48.162;-1.978;2023-04-06T06:01:03;10.70;84.80
63289;DHT22;49412;48.162;-1.978;2023-04-06T06:03:30;10.80;81.40
63289;DHT22;49412;48.162;-1.978;2023-04-06T06:06:02;10.80;78.50
63289;DHT22;49412;48.162;-1.978;2023-04-06T06:08:29;10.90;79.70
63289;DHT22;49412;48.162;-1.978;2023-04-06T06:10:54;10.90;79.00
63289;DHT22;49412;48.162;-1.978;2023-04-06T06:13:20;10.90;80.40
63289;DHT22;49412;48.162;-1.978;2023-04-06T06:15:46;11.00;78.70
63289;DHT22;49412;48.162;-1.978;2023-04-06T06:18:12;11.00;81.10
63289;DHT22;49412;48.162;-1.978;2023-04-06T06:20:37;11.00;78.80
63289;DHT22;49412;48.162;-1.978;2023-04-06T06:23:03;11.10;78.90
63289;DHT22;49412;48.162;-1.978;2023-04-06T06:25:28;11.20;79.20
63289;DHT22;49412;48.162;-1.978;2023-04-06T06:27:56;11.20;72.40
63289;DHT22;49412;48.162;-1.978;2023-04-06T06:30:21;11.20;72.20
63289;DHT22;49412;48.162;-1.978;2023-04-06T06:32:47;11.10;71.10
63289;DHT22;49412;48.162;-1.978;2023-04-06T06:35:13;11.30;78.30
63289;DHT22;49412;48.162;-1.978;2023-04-06T06:37:39;11.40;73.90
63289;DHT22;49412;48.162;-1.978;2023-04-06T06:40:04;11.60;69.10
63289;DHT22;49412;48.162;-1.978;2023-04-06T06:42:30;12.40;60.30
63289;DHT22;49412;48.162;-1.978;2023-04-06T06:44:56;12.70;46.60
63289;DHT22;49412;48.162;-1.978;2023-04-06T06:47:21;13.10;53.70
63289;DHT22;49412;48.162;-1.978;2023-04-06T06:49:47;14.10;23.60
63289;DHT22;49412;48.162;-1.978;2023-04-06T06:52:12;13.70;23.20
63289;DHT22;49412;48.162;-1.978;2023-04-06T06:54:38;13.70;21.10
63289;DHT22;49412;48.162;-1.978;2023-04-06T06:57:04;13.60;15.70
63289;DHT22;49412;48.162;-1.978;2023-04-06T06:59:29;13.10;27.00
63289;DHT22;49412;48.162;-1.978;2023-04-06T07:01:55;12.70;37.90
63289;DHT22;49412;48.162;-1.978;2023-04-06T07:04:20;12.80;34.00
63289;DHT22;49412;48.162;-1.978;2023-04-06T07:06:46;12.80;38.80
63289;DHT22;49412;48.162;-1.978;2023-04-06T07:09:12;12.80;39.80
63289;DHT22;49412;48.162;-1.978;2023-04-06T07:11:37;12.60;41.90
63289;DHT22;49412;48.162;-1.978;2023-04-06T07:14:03;12.10;53.00
63289;DHT22;49412;48.162;-1.978;2023-04-06T07:16:28;12.00;57.70
63289;DHT22;49412;48.162;-1.978;2023-04-06T07:18:54;11.80;70.40
63289;DHT22;49412;48.162;-1.978;2023-04-06T07:21:20;11.80;70.70
63289;DHT22;49412;48.162;-1.978;2023-04-06T07:23:47;11.90;72.90
63289;DHT22;49412;48.162;-1.978;2023-04-06T07:26:13;11.80;74.80
63289;DHT22;49412;48.162;-1.978;2023-04-06T07:28:39;11.90;73.60
63289;DHT22;49412;48.162;-1.978;2023-04-06T07:31:04;12.20;81.20
63289;DHT22;49412;48.162;-1.978;2023-04-06T07:33:30;12.30;65.90
63289;DHT22;49412;48.162;-1.978;2023-04-06T07:35:56;12.40;73.00
63289;DHT22;49412;48.162;-1.978;2023-04-06T07:38:23;12.60;64.40
63289;DHT22;49412;48.162;-1.978;2023-04-06T07:40:49;12.70;66.60
63289;DHT22;49412;48.162;-1.978;2023-04-06T07:43:15;12.60;62.60
63289;DHT22;49412;48.162;-1.978;2023-04-06T07:45:41;12.80;66.90
63289;DHT22;49412;48.162;-1.978;2023-04-06T07:48:07;13.10;57.20
63289;DHT22;49412;48.162;-1.978;2023-04-06T07:50:32;13.30;50.90
63289;DHT22;49412;48.162;-1.978;2023-04-06T07:52:58;13.10;52.00
63289;DHT22;49412;48.162;-1.978;2023-04-06T07:55:25;12.90;55.80
63289;DHT22;49412;48.162;-1.978;2023-04-06T07:57:50;12.70;59.20
63289;DHT22;49412;48.162;-1.978;2023-04-06T08:00:16;12.70;60.70
63289;DHT22;49412;48.162;-1.978;2023-04-06T08:02:42;12.60;62.20
63289;DHT22;49412;48.162;-1.978;2023-04-06T08:05:07;12.60;66.00
63289;DHT22;49412;48.162;-1.978;2023-04-06T08:07:33;12.90;67.20
63289;DHT22;49412;48.162;-1.978;2023-04-06T08:09:59;13.40;66.70
63289;DHT22;49412;48.162;-1.978;2023-04-06T08:12:25;13.70;41.30
63289;DHT22;49412;48.162;-1.978;2023-04-06T08:14:51;13.70;50.50
63289;DHT22;49412;48.162;-1.978;2023-04-06T08:17:16;13.90;45.20
63289;DHT22;49412;48.162;-1.978;2023-04-06T08:19:43;14.30;45.70
63289;DHT22;49412;48.162;-1.978;2023-04-06T08:22:10;14.80;31.10
63289;DHT22;49412;48.162;-1.978;2023-04-06T08:24:35;14.90;22.70
63289;DHT22;49412;48.162;-1.978;2023-04-06T08:27:01;14.50;19.80
63289;DHT22;49412;48.162;-1.978;2023-04-06T08:29:27;14.10;26.00
63289;DHT22;49412;48.162;-1.978;2023-04-06T08:31:53;13.80;35.60
63289;DHT22;49412;48.162;-1.978;2023-04-06T08:34:19;13.90;41.20
63289;DHT22;49412;48.162;-1.978;2023-04-06T08:36:45;14.40;36.80
63289;DHT22;49412;48.162;-1.978;2023-04-06T08:39:11;14.50;29.50
63289;DHT22;49412;48.162;-1.978;2023-04-06T08:41:36;14.70;19.40
63289;DHT22;49412;48.162;-1.978;2023-04-06T08:44:02;14.20;25.80
63289;DHT22;49412;48.162;-1.978;2023-04-06T08:46:31;13.90;29.70
63289;DHT22;49412;48.162;-1.978;2023-04-06T08:49:01;13.70;37.40
63289;DHT22;49412;48.162;-1.978;2023-04-06T08:51:27;13.80;37.20
63289;DHT22;49412;48.162;-1.978;2023-04-06T08:53:53;13.60;41.50
63289;DHT22;49412;48.162;-1.978;2023-04-06T08:56:25;13.40;45.80
63289;DHT22;49412;48.162;-1.978;2023-04-06T08:58:52;13.20;57.20
63289;DHT22;49412;48.162;-1.978;2023-04-06T09:01:20;13.20;58.10
63289;DHT22;49412;48.162;-1.978;2023-04-06T09:03:46;12.90;71.10
63289;DHT22;49412;48.162;-1.978;2023-04-06T09:06:11;13.00;78.10
63289;DHT22;49412;48.162;-1.978;2023-04-06T09:08:39;13.10;76.80
63289;DHT22;49412;48.162;-1.978;2023-04-06T09:11:05;13.10;74.70
63289;DHT22;49412;48.162;-1.978;2023-04-06T09:13:30;13.10;76.50
63289;DHT22;49412;48.162;-1.978;2023-04-06T09:16:02;13.00;88.20
63289;DHT22;49412;48.162;-1.978;2023-04-06T09:18:29;13.10;92.00
63289;DHT22;49412;48.162;-1.978;2023-04-06T09:20:57;13.50;92.60
63289;DHT22;49412;48.162;-1.978;2023-04-06T09:23:22;13.90;87.30
63289;DHT22;49412;48.162;-1.978;2023-04-06T09:25:49;14.00;78.70
63289;DHT22;49412;48.162;-1.978;2023-04-06T09:28:14;14.10;77.60
63289;DHT22;49412;48.162;-1.978;2023-04-06T09:30:47;14.30;68.50
63289;DHT22;49412;48.162;-1.978;2023-04-06T09:33:13;14.40;70.10
63289;DHT22;49412;48.162;-1.978;2023-04-06T09:35:38;14.60;64.10
63289;DHT22;49412;48.162;-1.978;2023-04-06T09:38:10;14.50;65.60
63289;DHT22;49412;48.162;-1.978;2023-04-06T09:40:36;14.40;67.00
63289;DHT22;49412;48.162;-1.978;2023-04-06T09:43:01;14.50;63.20
63289;DHT22;49412;48.162;-1.978;2023-04-06T09:45:29;14.50;63.20
63289;DHT22;49412;48.162;-1.978;2023-04-06T09:47:56;14.20;53.80
63289;DHT22;49412;48.162;-1.978;2023-04-06T09:50:23;14.20;72.50
63289;DHT22;49412;48.162;-1.978;2023-04-06T09:52:50;14.60;63.20
63289;DHT22;49412;48.162;-1.978;2023-04-06T09:55:37;14.90;64.50
63289;DHT22;49412;48.162;-1.978;2023-04-06T09:58:06;15.40;44.70
63289;DHT22;49412;48.162;-1.978;2023-04-06T10:00:40;15.50;46.60
63289;DHT22;49412;48.162;-1.978;2023-04-06T10:08:10;15.80;35.00
63289;DHT22;49412;48.162;-1.978;2023-04-06T10:10:37;15.90;30.00
63289;DHT22;49412;48.162;-1.978;2023-04-06T10:13:03;16.00;25.40
63289;DHT22;49412;48.162;-1.978;2023-04-06T10:15:29;16.20;22.20
63289;DHT22;49412;48.162;-1.978;2023-04-06T10:17:56;16.70;23.20
63289;DHT22;49412;48.162;-1.978;2023-04-06T10:25:33;17.50;1.00
63289;DHT22;49412;48.162;-1.978;2023-04-06T10:28:00;17.40;1.00
63289;DHT22;49412;48.162;-1.978;2023-04-06T10:30:25;17.50;1.00
63289;DHT22;49412;48.162;-1.978;2023-04-06T10:32:51;16.90;1.00
63289;DHT22;49412;48.162;-1.978;2023-04-06T10:35:17;16.70;1.00
63289;DHT22;49412;48.162;-1.978;2023-04-06T10:37:49;16.90;1.00
63289;DHT22;49412;48.162;-1.978;2023-04-06T10:40:24;17.10;1.00
63289;DHT22;49412;48.162;-1.978;2023-04-06T10:42:51;16.80;3.30
63289;DHT22;49412;48.162;-1.978;2023-04-06T10:45:23;16.90;1.00
63289;DHT22;49412;48.162;-1.978;2023-04-06T10:47:49;16.70;2.60
63289;DHT22;49412;48.162;-1.978;2023-04-06T10:50:16;16.90;1.00
63289;DHT22;49412;48.162;-1.978;2023-04-06T10:52:45;17.40;1.00
63289;DHT22;49412;48.162;-1.978;2023-04-06T10:55:14;17.80;1.00
63289;DHT22;49412;48.162;-1.978;2023-04-06T10:57:40;18.30;1.00
63289;DHT22;49412;48.162;-1.978;2023-04-06T11:00:06;19.50;1.00
63289;DHT22;49412;48.162;-1.978;2023-04-06T11:02:34;21.30;1.00
63289;DHT22;49412;48.162;-1.978;2023-04-06T11:05:00;23.00;1.00
63289;DHT22;49412;48.162;-1.978;2023-04-06T11:07:26;22.50;1.00
63289;DHT22;49412;48.162;-1.978;2023-04-06T11:09:52;22.50;1.00
63289;DHT22;49412;48.162;-1.978;2023-04-06T11:12:22;21.30;1.00
63289;DHT22;49412;48.162;-1.978;2023-04-06T11:17:25;19.10;1.00
63289;DHT22;49412;48.162;-1.978;2023-04-06T11:19:51;18.30;1.00
63289;DHT22;49412;48.162;-1.978;2023-04-06T11:22:16;18.30;1.00
63289;DHT22;49412;48.162;-1.978;2023-04-06T11:24:42;18.50;1.00
63289;DHT22;49412;48.162;-1.978;2023-04-06T11:27:07;19.10;1.00
63289;DHT22;49412;48.162;-1.978;2023-04-06T11:29:34;21.20;1.00
63289;DHT22;49412;48.162;-1.978;2023-04-06T11:32:05;22.70;1.00
63289;DHT22;49412;48.162;-1.978;2023-04-06T11:34:38;24.20;1.00
63289;DHT22;49412;48.162;-1.978;2023-04-06T11:37:06;24.60;1.00
63289;DHT22;49412;48.162;-1.978;2023-04-06T11:39:37;24.10;1.00
63289;DHT22;49412;48.162;-1.978;2023-04-06T11:42:03;23.20;1.00
63289;DHT22;49412;48.162;-1.978;2023-04-06T11:44:30;22.50;1.00
63289;DHT22;49412;48.162;-1.978;2023-04-06T11:46:57;21.40;1.00
63289;DHT22;49412;48.162;-1.978;2023-04-06T11:49:26;20.50;1.00
63289;DHT22;49412;48.162;-1.978;2023-04-06T11:51:52;19.70;1.00
63289;DHT22;49412;48.162;-1.978;2023-04-06T11:54:17;19.60;1.00
63289;DHT22;49412;48.162;-1.978;2023-04-06T11:56:45;21.90;1.00
63289;DHT22;49412;48.162;-1.978;2023-04-06T11:59:11;23.20;1.00
63289;DHT22;49412;48.162;-1.978;2023-04-06T12:01:44;24.60;1.00
63289;DHT22;49412;48.162;-1.978;2023-04-06T12:04:10;25.30;1.00
63289;DHT22;49412;48.162;-1.978;2023-04-06T12:06:36;27.10;1.00
63289;DHT22;49412;48.162;-1.978;2023-04-06T12:09:01;27.10;1.00
63289;DHT22;49412;48.162;-1.978;2023-04-06T12:11:27;28.90;1.00
63289;DHT22;49412;48.162;-1.978;2023-04-06T12:13:53;29.30;1.00
63289;DHT22;49412;48.162;-1.978;2023-04-06T12:16:18;27.40;1.00
63289;DHT22;49412;48.162;-1.978;2023-04-06T12:18:44;26.10;1.00
63289;DHT22;49412;48.162;-1.978;2023-04-06T12:21:10;25.00;1.00
63289;DHT22;49412;48.162;-1.978;2023-04-06T12:23:36;24.00;1.00
63289;DHT22;49412;48.162;-1.978;2023-04-06T12:26:02;22.80;1.00
63289;DHT22;49412;48.162;-1.978;2023-04-06T12:28:31;22.10;1.00
63289;DHT22;49412;48.162;-1.978;2023-04-06T12:30:56;21.50;1.00
63289;DHT22;49412;48.162;-1.978;2023-04-06T12:33:22;21.60;1.00
63289;DHT22;49412;48.162;-1.978;2023-04-06T12:35:47;21.40;1.00
63289;DHT22;49412;48.162;-1.978;2023-04-06T12:38:13;21.10;1.00
63289;DHT22;49412;48.162;-1.978;2023-04-06T12:40:39;21.00;1.00
63289;DHT22;49412;48.162;-1.978;2023-04-06T12:43:05;20.30;1.00
63289;DHT22;49412;48.162;-1.978;2023-04-06T12:45:31;20.00;1.00
63289;DHT22;49412;48.162;-1.978;2023-04-06T12:47:57;20.20;1.00
63289;DHT22;49412;48.162;-1.978;2023-04-06T12:50:22;20.90;1.00
63289;DHT22;49412;48.162;-1.978;2023-04-06T12:52:48;21.80;1.00
63289;DHT22;49412;48.162;-1.978;2023-04-06T12:55:13;22.90;1.00
63289;DHT22;49412;48.162;-1.978;2023-04-06T12:57:39;25.50;1.00
63289;DHT22;49412;48.162;-1.978;2023-04-06T13:00:05;26.20;1.00
63289;DHT22;49412;48.162;-1.978;2023-04-06T13:02:31;25.60;1.00
63289;DHT22;49412;48.162;-1.978;2023-04-06T13:04:57;25.00;1.00
63289;DHT22;49412;48.162;-1.978;2023-04-06T13:07:22;24.10;1.00
63289;DHT22;49412;48.162;-1.978;2023-04-06T13:09:48;23.90;1.00
63289;DHT22;49412;48.162;-1.978;2023-04-06T13:12:15;23.80;1.00
63289;DHT22;49412;48.162;-1.978;2023-04-06T13:14:40;23.40;1.00
63289;DHT22;49412;48.162;-1.978;2023-04-06T13:17:06;23.20;1.00
63289;DHT22;49412;48.162;-1.978;2023-04-06T13:19:32;23.40;1.00
63289;DHT22;49412;48.162;-1.978;2023-04-06T13:22:01;23.20;1.00
63289;DHT22;49412;48.162;-1.978;2023-04-06T13:24:26;22.70;1.00
63289;DHT22;49412;48.162;-1.978;2023-04-06T13:26:52;22.20;1.00
63289;DHT22;49412;48.162;-1.978;2023-04-06T13:29:17;21.70;1.00
63289;DHT22;49412;48.162;-1.978;2023-04-06T13:31:43;21.40;1.00
63289;DHT22;49412;48.162;-1.978;2023-04-06T13:34:09;21.00;1.00
63289;DHT22;49412;48.162;-1.978;2023-04-06T13:36:35;20.80;1.00
63289;DHT22;49412;48.162;-1.978;2023-04-06T13:39:00;20.60;1.00
63289;DHT22;49412;48.162;-1.978;2023-04-06T13:41:26;20.20;1.00
63289;DHT22;49412;48.162;-1.978;2023-04-06T13:43:52;20.20;1.00
63289;DHT22;49412;48.162;-1.978;2023-04-06T13:46:18;20.30;1.00
63289;DHT22;49412;48.162;-1.978;2023-04-06T13:48:43;20.40;1.00
63289;DHT22;49412;48.162;-1.978;2023-04-06T13:51:10;20.10;1.00
63289;DHT22;49412;48.162;-1.978;2023-04-06T13:53:36;19.60;1.00
63289;DHT22;49412;48.162;-1.978;2023-04-06T13:56:02;19.50;1.00
63289;DHT22;49412;48.162;-1.978;2023-04-06T13:58:30;19.30;1.00
63289;DHT22;49412;48.162;-1.978;2023-04-06T14:01:03;19.10;1.00
63289;DHT22;49412;48.162;-1.978;2023-04-06T14:03:29;18.90;1.00
63289;DHT22;49412;48.162;-1.978;2023-04-06T14:05:55;19.00;1.00
63289;DHT22;49412;48.162;-1.978;2023-04-06T14:08:20;19.20;1.00
63289;DHT22;49412;48.162;-1.978;2023-04-06T14:10:46;19.10;1.00
63289;DHT22;49412;48.162;-1.978;2023-04-06T14:13:11;18.70;1.00
63289;DHT22;49412;48.162;-1.978;2023-04-06T14:15:37;18.40;1.00
63289;DHT22;49412;48.162;-1.978;2023-04-06T14:18:03;18.20;1.00
63289;DHT22;49412;48.162;-1.978;2023-04-06T14:20:30;18.20;1.00
63289;DHT22;49412;48.162;-1.978;2023-04-06T14:22:56;18.30;1.00
63289;DHT22;49412;48.162;-1.978;2023-04-06T14:25:22;18.30;1.00
63289;DHT22;49412;48.162;-1.978;2023-04-06T14:27:47;18.20;1.00
63289;DHT22;49412;48.162;-1.978;2023-04-06T14:30:13;18.30;1.00
63289;DHT22;49412;48.162;-1.978;2023-04-06T14:32:39;18.30;1.00
63289;DHT22;49412;48.162;-1.978;2023-04-06T14:35:05;18.20;1.00
63289;DHT22;49412;48.162;-1.978;2023-04-06T14:37:30;18.20;1.00
63289;DHT22;49412;48.162;-1.978;2023-04-06T14:39:56;19.10;1.00
63289;DHT22;49412;48.162;-1.978;2023-04-06T14:42:21;20.20;1.00
63289;DHT22;49412;48.162;-1.978;2023-04-06T14:44:47;21.00;1.00
63289;DHT22;49412;48.162;-1.978;2023-04-06T14:47:14;21.40;1.00
63289;DHT22;49412;48.162;-1.978;2023-04-06T14:49:45;21.40;1.00
63289;DHT22;49412;48.162;-1.978;2023-04-06T14:52:11;20.80;1.00
63289;DHT22;49412;48.162;-1.978;2023-04-06T14:54:41;20.20;1.00
63289;DHT22;49412;48.162;-1.978;2023-04-06T14:57:06;19.80;1.00
63289;DHT22;49412;48.162;-1.978;2023-04-06T14:59:32;19.50;1.00
63289;DHT22;49412;48.162;-1.978;2023-04-06T15:01:58;19.70;1.00
63289;DHT22;49412;48.162;-1.978;2023-04-06T15:04:25;20.90;1.00
63289;DHT22;49412;48.162;-1.978;2023-04-06T15:06:51;21.40;1.00
63289;DHT22;49412;48.162;-1.978;2023-04-06T15:09:16;21.60;1.00
63289;DHT22;49412;48.162;-1.978;2023-04-06T15:11:42;23.10;1.00
63289;DHT22;49412;48.162;-1.978;2023-04-06T15:14:07;23.60;1.00
63289;DHT22;49412;48.162;-1.978;2023-04-06T15:16:33;25.50;1.00
63289;DHT22;49412;48.162;-1.978;2023-04-06T15:18:59;27.30;1.00
63289;DHT22;49412;48.162;-1.978;2023-04-06T15:21:25;25.30;1.00
63289;DHT22;49412;48.162;-1.978;2023-04-06T15:23:52;23.60;1.00
63289;DHT22;49412;48.162;-1.978;2023-04-06T15:26:17;23.40;1.00